Time;durP1;ratioP1;P1;durP2;ratioP2;P2;SDS_P1;SDS_P2;PMS_P1;PMS_P2;Temp;Humidity;BMP_temperature;BMP_pressure;BME280_temperature;BME280_humidity;BME280_pressure;Samples;Min_cycle;Max_cycle;Signal;HPM_P1;HPM_P2
2021/05/07 00:01:20;;;;;;;6.35;5.53;;;;;;;5.54;90.35;99649.44;3577916;40;20076;-50
2021/05/07 00:03:46;;;;;;;6.82;5.50;;;;;;;5.47;90.65;99655.16;3576736;40;20322;-54
2021/05/07 00:06:13;;;;;;;5.50;4.90;;;;;;;5.45;90.98;99646.63;3574029;40;20466;-53
2021/05/07 00:08:41;;;;;;;8.40;5.57;;;;;;;5.28;92.07;99642.75;3576263;40;20081;-52
2021/05/07 00:11:16;;;;;;;8.27;5.85;;;;;;;5.29;92.54;99655.47;3576222;40;20053;-50
2021/05/07 00:13:45;;;;;;;5.93;5.10;;;;;;;5.25;92.58;99647.72;3575427;40;20057;-51
2021/05/07 00:16:12;;;;;;;7.95;5.65;;;;;;;5.54;91.54;99643.50;3576332;40;20056;-50
2021/05/07 00:18:38;;;;;;;8.18;5.28;;;;;;;5.33;92.81;99642.06;3575058;40;20128;-49
2021/05/07 00:21:06;;;;;;;7.28;5.05;;;;;;;5.49;92.07;99645.03;3576512;40;20053;-51
2021/05/07 00:23:34;;;;;;;7.07;5.30;;;;;;;5.68;92.04;99639.66;3574977;40;20062;-50
2021/05/07 00:26:01;;;;;;;6.15;5.55;;;;;;;5.70;91.33;99635.50;3576555;40;20363;-50
2021/05/07 00:28:27;;;;;;;8.02;5.45;;;;;;;5.49;91.58;99643.38;3576445;40;20430;-51
2021/05/07 00:30:54;;;;;;;5.88;5.22;;;;;;;5.10;93.95;99637.97;3574576;40;20357;-52
2021/05/07 00:33:20;;;;;;;6.85;5.45;;;;;;;4.93;94.85;99644.19;3576444;40;20133;-54
2021/05/07 00:35:48;;;;;;;7.65;5.72;;;;;;;4.73;96.06;99644.44;3576764;40;20052;-51
2021/05/07 00:38:14;;;;;;;6.30;5.70;;;;;;;4.69;96.52;99637.53;3574265;40;20326;-49
2021/05/07 00:40:41;;;;;;;7.82;6.50;;;;;;;4.71;96.46;99635.03;3575655;40;20061;-48
2021/05/07 00:43:08;;;;;;;9.75;6.95;;;;;;;4.70;97.23;99640.94;3576429;40;20053;-51
2021/05/07 00:45:34;;;;;;;7.40;5.90;;;;;;;4.76;96.47;99641.13;3574672;40;20060;-51
2021/05/07 00:48:06;;;;;;;7.25;5.75;;;;;;;4.65;95.93;99638.25;3575348;40;20085;-52
2021/05/07 00:50:34;;;;;;;6.78;5.43;;;;;;;4.83;95.12;99638.84;3576308;40;20056;-53
2021/05/07 00:53:02;;;;;;;6.28;5.13;;;;;;;4.81;94.73;99632.03;3576573;40;20068;-49
2021/05/07 00:55:29;;;;;;;6.68;5.60;;;;;;;4.76;94.18;99629.34;3576260;40;20306;-51
2021/05/07 00:57:57;;;;;;;6.13;5.10;;;;;;;4.81;94.04;99629.47;3576146;40;21129;-52
2021/05/07 01:00:25;;;;;;;6.18;5.32;;;;;;;4.76;95.13;99634.41;3576251;40;20061;-48
2021/05/07 01:02:52;;;;;;;15.57;10.40;;;;;;;4.66;95.83;99627.28;3575290;40;20057;-50
2021/05/07 01:05:22;;;;;;;27.75;19.05;;;;;;;4.74;95.98;99635.16;3576282;40;20065;-50
2021/05/07 01:07:52;;;;;;;38.50;27.48;;;;;;;4.47;97.75;99620.78;3576376;40;20310;-55
2021/05/07 01:10:20;;;;;;;22.42;16.25;;;;;;;4.64;97.13;99623.88;3575762;40;20049;-50
2021/05/07 01:12:48;;;;;;;29.55;21.15;;;;;;;4.50;97.06;99623.41;3575901;40;20067;-51
2021/05/07 01:15:26;;;;;;;30.02;21.88;;;;;;;4.48;97.46;99625.03;3574288;40;20095;-48
2021/05/07 01:17:55;;;;;;;35.50;26.33;;;;;;;4.45;98.53;99614.81;3575794;40;20428;-52
2021/05/07 01:20:24;;;;;;;46.45;32.42;;;;;;;4.36;98.58;99606.91;3575706;40;20059;-50
2021/05/07 01:22:53;;;;;;;43.15;30.95;;;;;;;4.34;99.46;99617.00;3574531;40;20132;-51
2021/05/07 01:25:22;;;;;;;39.50;28.40;;;;;;;4.37;99.64;99612.81;3575876;40;20079;-50
2021/05/07 01:27:51;;;;;;;54.90;35.47;;;;;;;4.42;99.47;99618.91;3575740;40;20276;-48
2021/05/07 01:30:19;;;;;;;25.70;19.60;;;;;;;4.60;97.94;99614.44;3576494;40;20057;-52
2021/05/07 01:32:49;;;;;;;48.75;30.38;;;;;;;4.48;97.89;99609.81;3574579;40;20125;-51
2021/05/07 01:35:21;;;;;;;22.17;15.00;;;;;;;4.82;96.94;99621.91;3573212;40;20077;-52
2021/05/07 01:37:50;;;;;;;14.35;10.15;;;;;;;4.89;96.99;99615.34;3574275;40;20051;-53
2021/05/07 01:40:25;;;;;;;8.73;6.10;;;;;;;4.85;96.84;99616.06;3575611;40;20089;-51
2021/05/07 01:42:53;;;;;;;7.60;5.82;;;;;;;4.63;97.67;99614.53;3574900;40;20401;-54
2021/05/07 01:45:23;;;;;;;7.78;6.20;;;;;;;4.71;97.47;99619.84;3575474;40;20411;-48
2021/05/07 01:47:51;;;;;;;6.22;5.63;;;;;;;5.04;96.36;99620.91;3574308;40;20045;-52
2021/05/07 01:50:20;;;;;;;5.93;5.32;;;;;;;4.75;96.81;99622.50;3575569;40;20057;-50
2021/05/07 01:52:47;;;;;;;8.57;6.55;;;;;;;4.53;98.09;99609.97;3575667;40;20093;-52
2021/05/07 01:55:19;;;;;;;7.75;5.82;;;;;;;4.82;96.58;99621.06;3572951;40;20092;-50
2021/05/07 01:57:46;;;;;;;6.55;5.95;;;;;;;4.81;96.28;99614.25;3575187;40;20064;-49
2021/05/07 02:00:20;;;;;;;7.60;5.75;;;;;;;4.97;95.83;99616.44;3573026;40;20049;-48
2021/05/07 02:02:47;;;;;;;7.72;5.28;;;;;;;4.94;95.65;99608.72;3575157;40;20101;-51
2021/05/07 02:05:15;;;;;;;6.35;5.68;;;;;;;5.07;94.61;99607.44;3573153;40;20052;-54
2021/05/07 02:07:45;;;;;;;6.07;5.45;;;;;;;4.76;96.88;99613.22;3575458;40;20034;-51
2021/05/07 02:10:15;;;;;;;6.75;6.05;;;;;;;4.86;96.84;99610.19;3575425;40;20093;-50
2021/05/07 02:12:41;;;;;;;7.50;6.07;;;;;;;4.62;98.00;99611.94;3575526;40;20589;-49
2021/05/07 02:15:13;;;;;;;7.55;6.60;;;;;;;4.70;98.00;99610.50;3575494;40;20061;-50
2021/05/07 02:17:40;;;;;;;8.38;6.15;;;;;;;4.41;99.20;99605.38;3573833;40;20053;-49
2021/05/07 02:20:08;;;;;;;6.22;5.45;;;;;;;4.40;99.45;99603.66;3575617;40;20320;-48
2021/05/07 02:22:35;;;;;;;6.30;5.65;;;;;;;4.58;99.03;99608.47;3573673;40;20372;-49
2021/05/07 02:25:03;;;;;;;7.03;5.78;;;;;;;4.78;97.26;99611.63;3574849;40;20137;-53
2021/05/07 02:27:30;;;;;;;7.43;6.07;;;;;;;4.69;97.45;99608.78;3575237;40;20388;-50
2021/05/07 02:29:56;;;;;;;8.00;5.85;;;;;;;4.65;97.48;99604.44;3575869;40;20061;-50
2021/05/07 02:32:23;;;;;;;8.05;5.95;;;;;;;4.53;98.21;99605.78;3576529;40;20065;-52
2021/05/07 02:34:50;;;;;;;8.35;6.63;;;;;;;4.45;99.49;99602.13;3575182;40;20053;-50
2021/05/07 02:37:17;;;;;;;18.38;10.13;;;;;;;4.60;98.90;99601.75;3574966;40;20080;-48
2021/05/07 02:39:43;;;;;;;15.88;11.23;;;;;;;4.50;99.34;99600.59;3575395;40;20045;-52
2021/05/07 02:42:10;;;;;;;15.80;11.30;;;;;;;4.42;100.00;99599.50;3575318;40;20398;-51
2021/05/07 02:44:37;;;;;;;14.90;10.65;;;;;;;4.32;100.00;99602.53;3575931;40;20334;-51
2021/05/07 02:47:04;;;;;;;11.88;8.80;;;;;;;4.44;100.00;99599.56;3575453;40;20053;-55
2021/05/07 02:49:32;;;;;;;9.05;7.70;;;;;;;4.50;100.00;99595.53;3575994;40;20096;-52
2021/05/07 02:52:00;;;;;;;8.82;7.40;;;;;;;4.41;100.00;99600.31;3574186;40;20383;-52
2021/05/07 02:54:26;;;;;;;9.55;7.25;;;;;;;4.76;99.81;99608.16;3574836;40;20061;-55
2021/05/07 02:56:53;;;;;;;70.35;45.38;;;;;;;4.93;99.21;99608.69;3574676;40;20166;-55
2021/05/07 02:59:20;;;;;;;13.82;8.48;;;;;;;5.43;94.28;99607.66;3571525;40;20057;-54
2021/05/07 03:01:46;;;;;;;13.13;8.23;;;;;;;5.34;94.04;99608.25;3575768;40;20075;-51
2021/05/07 03:04:13;;;;;;;10.90;8.50;;;;;;;4.73;96.76;99600.47;3573345;40;20053;-48
2021/05/07 03:06:39;;;;;;;11.90;7.32;;;;;;;4.98;98.16;99599.53;3575432;40;20497;-52
2021/05/07 03:09:06;;;;;;;9.73;7.55;;;;;;;4.98;97.23;99608.00;3575552;40;20049;-50
2021/05/07 03:11:33;;;;;;;11.35;9.20;;;;;;;4.93;97.94;99604.47;3575550;40;20291;-48
2021/05/07 03:14:00;;;;;;;17.02;12.30;;;;;;;4.97;96.41;99601.22;3575169;40;20348;-48
2021/05/07 03:16:26;;;;;;;12.13;8.73;;;;;;;5.34;95.12;99602.31;3580256;23;20134;-52
2021/05/07 03:18:53;;;;;;;8.68;7.78;;;;;;;5.30;95.23;99603.91;3555112;40;20403;-45
2021/05/07 03:21:21;;;;;;;10.82;8.15;;;;;;;5.18;95.79;99616.25;3555498;40;20101;-47
2021/05/07 03:23:48;;;;;;;10.68;7.82;;;;;;;5.08;97.16;99615.09;3554829;40;20443;-50
2021/05/07 03:26:14;;;;;;;9.23;8.23;;;;;;;5.06;97.64;99621.78;3560006;40;20041;-48
2021/05/07 03:28:42;;;;;;;9.20;7.80;;;;;;;5.01;97.01;99623.34;3574442;40;20069;-46
2021/05/07 03:31:09;;;;;;;12.65;7.47;;;;;;;5.19;96.70;99624.72;3575031;40;20053;-50
2021/05/07 03:33:37;;;;;;;10.07;7.50;;;;;;;5.07;96.91;99626.06;3573759;40;20072;-50
2021/05/07 03:36:06;;;;;;;9.43;8.20;;;;;;;4.83;97.81;99623.63;3575120;40;20455;-50
2021/05/07 03:38:33;;;;;;;9.10;8.00;;;;;;;5.02;97.89;99632.66;3574739;40;20060;-48
2021/05/07 03:40:59;;;;;;;11.15;8.80;;;;;;;4.98;97.44;99632.53;3571576;40;20418;-48
2021/05/07 03:43:26;;;;;;;10.05;8.05;;;;;;;5.22;97.26;99640.00;3574040;40;20068;-50
2021/05/07 03:45:52;;;;;;;8.02;7.22;;;;;;;5.03;96.88;99629.31;3575265;40;20080;-45
2021/05/07 03:48:21;;;;;;;9.40;8.15;;;;;;;5.40;96.39;99632.09;3574567;40;20067;-51
2021/05/07 03:50:49;;;;;;;10.05;7.55;;;;;;;5.53;95.43;99631.63;3573706;40;20045;-50
2021/05/07 03:53:17;;;;;;;9.73;7.07;;;;;;;5.66;94.53;99637.94;3566297;40;20049;-51
2021/05/07 03:55:44;;;;;;;7.38;6.68;;;;;;;5.79;94.40;99642.53;3574621;40;20069;-48
2021/05/07 03:58:11;;;;;;;8.30;6.65;;;;;;;5.84;93.72;99639.28;3573940;40;20117;-51
2021/05/07 04:00:39;;;;;;;9.70;6.90;;;;;;;5.62;94.67;99645.44;3575295;40;20085;-45
2021/05/07 04:03:06;;;;;;;7.65;6.85;;;;;;;5.91;93.97;99657.22;3574942;40;20085;-50
2021/05/07 04:05:34;;;;;;;7.70;6.93;;;;;;;5.94;93.37;99652.28;3574713;40;20045;-54
2021/05/07 04:10:54;;;;;;;11.77;7.07;;;;;;;5.94;93.34;99660.75;3573448;40;20092;-46
2021/05/07 04:13:39;;;;;;;5.95;5.35;;;;;;;5.72;93.74;99655.88;3574131;40;20422;-48
2021/05/07 04:16:07;;;;;;;8.15;7.32;;;;;;;5.79;94.23;99658.63;3574729;40;20052;-49
2021/05/07 04:18:39;;;;;;;9.52;7.20;;;;;;;5.86;93.27;99665.59;3572923;40;20054;-49
2021/05/07 04:21:06;;;;;;;12.35;8.07;;;;;;;5.75;94.30;99666.13;3575362;40;20056;-47
2021/05/07 04:23:32;;;;;;;8.57;7.07;;;;;;;5.83;94.15;99668.06;3574741;40;20057;-54
2021/05/07 04:26:00;;;;;;;9.25;7.25;;;;;;;5.52;94.92;99661.25;3574673;40;20465;-47
2021/05/07 04:28:27;;;;;;;10.63;8.57;;;;;;;5.43;96.05;99666.03;3574792;40;20065;-50
2021/05/07 04:30:54;;;;;;;10.00;9.00;;;;;;;5.69;95.49;99673.56;3574586;40;20086;-46
2021/05/07 04:33:22;;;;;;;10.73;9.60;;;;;;;5.42;96.04;99678.69;3574786;40;20061;-54
2021/05/07 04:35:50;;;;;;;11.25;10.05;;;;;;;5.59;95.78;99678.38;3574580;40;20064;-54
2021/05/07 04:38:17;;;;;;;10.63;8.80;;;;;;;5.80;94.40;99675.59;3574449;40;20065;-47
2021/05/07 04:40:43;;;;;;;10.50;8.98;;;;;;;5.93;93.72;99683.59;3574889;40;20060;-48
2021/05/07 04:43:10;;;;;;;9.65;8.20;;;;;;;6.04;92.72;99685.59;3575051;40;20057;-47
2021/05/07 04:45:37;;;;;;;10.15;8.00;;;;;;;5.96;93.20;99688.75;3574973;40;20053;-50
2021/05/07 04:48:15;;;;;;;9.18;8.25;;;;;;;6.15;92.24;99701.16;3572849;40;20104;-55
2021/05/07 04:50:43;;;;;;;9.30;8.27;;;;;;;6.12;91.71;99695.97;3573853;40;20339;-51
2021/05/07 04:53:10;;;;;;;8.95;8.05;;;;;;;6.37;92.10;99698.34;3575492;40;20040;-55
2021/05/07 04:55:37;;;;;;;9.50;7.60;;;;;;;6.34;91.82;99697.44;3574557;40;20056;-53
2021/05/07 04:58:08;;;;;;;8.05;6.95;;;;;;;6.50;89.95;99703.75;3575224;40;20130;-53
2021/05/07 05:00:35;;;;;;;9.23;6.55;;;;;;;6.38;90.24;99707.72;3564017;40;20085;-52
2021/05/07 05:03:01;;;;;;;8.77;7.03;;;;;;;6.40;89.95;99710.28;3573530;40;20292;-56
2021/05/07 05:05:29;;;;;;;8.07;7.00;;;;;;;6.42;91.21;99716.28;3574805;40;20085;-54
2021/05/07 05:07:56;;;;;;;9.32;7.13;;;;;;;6.35;90.67;99716.94;3566783;40;20056;-51
2021/05/07 05:10:23;;;;;;;10.32;8.73;;;;;;;6.33;91.10;99713.47;3574308;40;20132;-55
2021/05/07 05:12:50;;;;;;;12.30;9.45;;;;;;;6.52;89.89;99719.94;3574668;40;20084;-52
2021/05/07 05:15:19;;;;;;;11.25;8.90;;;;;;;6.96;87.58;99712.56;3574383;40;20422;-52
2021/05/07 05:17:46;;;;;;;8.75;7.10;;;;;;;7.08;86.26;99712.84;3573395;40;20065;-49
2021/05/07 05:20:13;;;;;;;9.13;7.40;;;;;;;6.83;87.67;99716.47;3573454;40;20064;-57
2021/05/07 05:22:41;;;;;;;8.02;7.22;;;;;;;6.57;90.18;99724.31;3570670;40;20068;-49
2021/05/07 05:25:08;;;;;;;9.82;8.00;;;;;;;6.80;88.31;99729.13;3574626;40;20423;-51
2021/05/07 05:27:37;;;;;;;7.35;6.65;;;;;;;7.48;85.33;99726.50;3573037;40;20052;-49
2021/05/07 05:30:06;;;;;;;9.85;7.63;;;;;;;7.47;84.67;99728.19;3565036;40;20215;-50
2021/05/07 05:32:33;;;;;;;9.15;7.50;;;;;;;7.51;85.17;99734.22;3574334;40;20056;-56
2021/05/07 05:35:00;;;;;;;17.42;11.23;;;;;;;7.79;83.25;99739.09;3573137;40;20116;-58
2021/05/07 05:37:27;;;;;;;9.63;7.97;;;;;;;7.53;82.33;99727.44;3573873;40;20036;-56
2021/05/07 05:39:54;;;;;;;8.23;6.70;;;;;;;7.63;82.43;99734.50;3574646;40;20049;-54
2021/05/07 05:42:29;;;;;;;9.63;8.20;;;;;;;7.59;81.39;99741.22;3572432;40;20333;-58
2021/05/07 05:44:56;;;;;;;9.30;8.00;;;;;;;7.30;82.83;99744.75;3576056;40;20072;-55
2021/05/07 05:47:22;;;;;;;7.80;6.70;;;;;;;7.76;80.85;99736.47;3574901;40;20413;-52
2021/05/07 05:49:55;;;;;;;10.73;7.00;;;;;;;7.38;80.94;99749.19;3574792;40;20395;-58
2021/05/07 05:52:21;;;;;;;7.55;6.47;;;;;;;7.57;79.98;99749.63;3574196;40;20137;-51
2021/05/07 05:54:49;;;;;;;9.18;6.55;;;;;;;7.62;79.45;99748.91;3574062;40;20060;-56
2021/05/07 05:57:16;;;;;;;8.40;7.13;;;;;;;7.27;80.37;99748.09;3576697;40;20052;-55
2021/05/07 05:59:43;;;;;;;9.02;6.10;;;;;;;7.51;80.30;99760.53;3576082;40;20296;-54
2021/05/07 06:02:15;;;;;;;8.65;6.78;;;;;;;7.38;81.84;99764.50;3574028;40;20047;-56
2021/05/07 06:04:46;;;;;;;10.13;6.80;;;;;;;7.29;82.29;99761.72;3573695;40;20052;-53
2021/05/07 06:07:14;;;;;;;9.18;6.78;;;;;;;7.26;82.34;99763.34;3572380;40;20120;-57
2021/05/07 06:09:41;;;;;;;9.25;6.53;;;;;;;7.31;81.32;99764.31;3573703;40;20208;-53
2021/05/07 06:12:09;;;;;;;7.63;6.22;;;;;;;7.53;78.71;99771.63;3574276;40;20533;-54
2021/05/07 06:14:40;;;;;;;9.18;6.30;;;;;;;7.52;80.37;99772.44;3572435;40;20418;-53
2021/05/07 06:17:08;;;;;;;5.85;5.25;;;;;;;7.30;81.40;99772.75;3573556;40;20052;-58
2021/05/07 06:19:36;;;;;;;7.40;5.80;;;;;;;7.39;81.23;99781.50;3572350;40;20085;-53
2021/05/07 06:22:03;;;;;;;7.85;6.00;;;;;;;7.00;85.01;99776.28;3574270;40;20053;-55
2021/05/07 06:24:31;;;;;;;8.85;6.32;;;;;;;6.50;87.67;99774.97;3574184;40;20315;-54
2021/05/07 06:26:59;;;;;;;8.20;6.05;;;;;;;7.00;85.75;99778.84;3574291;40;20068;-58
2021/05/07 06:29:26;;;;;;;7.43;5.68;;;;;;;6.71;87.37;99779.78;3574483;40;20323;-59
2021/05/07 06:31:53;;;;;;;7.00;5.72;;;;;;;6.53;89.61;99787.78;3573544;40;20049;-54
2021/05/07 06:34:20;;;;;;;9.50;5.50;;;;;;;6.78;89.46;99789.28;3574141;40;20154;-53
2021/05/07 06:36:46;;;;;;;6.43;5.57;;;;;;;6.67;90.15;99794.09;3573319;40;20075;-59
2021/05/07 06:39:13;;;;;;;5.95;5.30;;;;;;;6.70;89.18;99799.28;3572113;40;20049;-56
2021/05/07 06:41:41;;;;;;;7.65;5.43;;;;;;;6.97;89.66;99795.72;3574853;40;20438;-55
2021/05/07 06:44:13;;;;;;;8.98;5.80;;;;;;;6.63;91.47;99802.47;3571847;40;20040;-56
2021/05/07 06:46:39;;;;;;;6.90;5.03;;;;;;;6.85;89.07;99801.34;3573981;40;20052;-51
2021/05/07 06:49:07;;;;;;;6.85;4.90;;;;;;;6.97;89.16;99805.88;3573803;40;20086;-55
2021/05/07 06:51:33;;;;;;;5.97;5.38;;;;;;;6.92;89.32;99818.50;3573545;40;20061;-52
2021/05/07 06:54:00;;;;;;;7.80;5.30;;;;;;;6.47;90.59;99821.53;3573592;40;20108;-52
2021/05/07 06:56:27;;;;;;;7.55;5.10;;;;;;;6.50;90.27;99816.53;3573196;40;20065;-51
2021/05/07 06:58:54;;;;;;;9.23;5.65;;;;;;;6.62;90.84;99823.63;3572677;40;20037;-53
2021/05/07 07:01:21;;;;;;;7.97;6.47;;;;;;;6.42;92.21;99837.47;3573524;40;20067;-57
2021/05/07 07:03:51;;;;;;;7.38;5.63;;;;;;;6.32;94.97;99839.75;3572812;40;20144;-57
2021/05/07 07:06:18;;;;;;;10.10;5.63;;;;;;;5.98;96.31;99837.91;3573049;40;20413;-53
2021/05/07 07:08:45;;;;;;;10.13;6.13;;;;;;;6.11;95.55;99841.69;3573577;40;20359;-54
2021/05/07 07:11:12;;;;;;;12.25;5.65;;;;;;;6.24;96.87;99837.78;3573192;40;20172;-56
2021/05/07 07:13:40;;;;;;;7.90;5.72;;;;;;;6.34;95.00;99832.19;3573315;40;20419;-57
2021/05/07 07:16:07;;;;;;;6.75;5.10;;;;;;;6.55;94.02;99825.13;3563330;40;20061;-54
2021/05/07 07:18:33;;;;;;;9.43;5.90;;;;;;;6.40;94.35;99839.97;3574525;40;20108;-51
2021/05/07 07:21:01;;;;;;;9.18;6.63;;;;;;;6.46;96.90;99842.69;3574618;40;20077;-54
2021/05/07 07:23:28;;;;;;;7.70;6.70;;;;;;;6.68;93.82;99841.59;3566948;40;20055;-52
2021/05/07 07:25:55;;;;;;;9.25;5.38;;;;;;;6.58;93.61;99834.53;3574464;40;20459;-50
2021/05/07 07:28:21;;;;;;;10.45;5.72;;;;;;;6.34;95.43;99843.22;3574639;40;20154;-56
2021/05/07 07:30:48;;;;;;;10.05;5.95;;;;;;;6.46;96.50;99850.31;3575094;40;20080;-51
2021/05/07 07:33:14;;;;;;;8.38;5.38;;;;;;;6.47;94.71;99841.88;3574613;40;20097;-54
2021/05/07 07:35:41;;;;;;;9.38;5.32;;;;;;;6.35;93.31;99852.56;3574912;40;20103;-56
2021/05/07 07:38:08;;;;;;;8.60;5.00;;;;;;;6.28;93.19;99849.78;3574635;40;20052;-54
2021/05/07 07:40:37;;;;;;;6.97;5.00;;;;;;;6.25;94.18;99854.78;3573027;40;20048;-52
2021/05/07 07:43:04;;;;;;;9.88;5.00;;;;;;;5.90;97.82;99858.78;3574237;40;20104;-55
2021/05/07 07:45:32;;;;;;;11.10;6.60;;;;;;;6.34;95.15;99870.31;3574650;40;20061;-52
2021/05/07 07:48:06;;;;;;;10.85;6.82;;;;;;;5.94;94.37;99870.78;3574217;40;20057;-54
2021/05/07 07:50:33;;;;;;;11.57;6.82;;;;;;;5.57;98.89;99872.13;3574635;40;20335;-53
2021/05/07 07:53:00;;;;;;;7.65;5.10;;;;;;;5.81;98.33;99870.34;3574820;40;20065;-55
2021/05/07 07:55:26;;;;;;;7.72;5.88;;;;;;;5.45;97.67;99875.13;3574306;40;20093;-48
2021/05/07 07:57:53;;;;;;;7.47;5.40;;;;;;;5.26;98.57;99871.09;3575075;40;20057;-48
2021/05/07 08:00:20;;;;;;;8.18;5.20;;;;;;;5.40;99.18;99875.78;3575218;40;20083;-50
2021/05/07 08:02:52;;;;;;;6.03;4.35;;;;;;;5.44;96.33;99878.47;3574568;40;20142;-51
2021/05/07 08:05:19;;;;;;;9.40;5.45;;;;;;;5.53;99.78;99876.22;3574825;40;20150;-48
2021/05/07 08:07:46;;;;;;;8.75;5.40;;;;;;;5.76;98.56;99879.53;3574667;40;20084;-52
2021/05/07 08:10:15;;;;;;;7.68;4.85;;;;;;;5.78;97.34;99888.06;3574853;40;20057;-49
2021/05/07 08:12:43;;;;;;;8.73;4.65;;;;;;;5.95;96.64;99891.16;3574605;40;20096;-51
2021/05/07 08:15:10;;;;;;;7.30;4.18;;;;;;;5.83;97.49;99894.16;3575161;40;20049;-56
2021/05/07 08:17:37;;;;;;;5.75;4.07;;;;;;;6.34;95.00;99904.22;3572791;40;20334;-57
2021/05/07 08:20:07;;;;;;;6.70;4.45;;;;;;;5.50;97.99;99901.56;3574983;40;20164;-57
2021/05/07 08:22:34;;;;;;;6.63;4.32;;;;;;;5.88;97.93;99910.41;3574780;40;20056;-56
2021/05/07 08:25:01;;;;;;;6.32;4.28;;;;;;;6.04;95.99;99918.53;3569400;40;20093;-56
2021/05/07 08:27:28;;;;;;;6.43;4.38;;;;;;;5.90;96.39;99924.81;3574323;40;20134;-55
2021/05/07 08:29:55;;;;;;;6.80;3.97;;;;;;;5.77;96.77;99929.50;3573080;40;20142;-52
2021/05/07 08:32:22;;;;;;;7.07;3.50;;;;;;;5.94;94.84;99937.72;3573374;40;20044;-54
2021/05/07 08:34:49;;;;;;;4.03;2.80;;;;;;;5.75;92.71;99941.31;3574676;40;20061;-55
2021/05/07 08:37:16;;;;;;;6.10;3.92;;;;;;;5.54;94.93;99945.66;3574071;40;20053;-55
2021/05/07 08:39:43;;;;;;;6.30;4.10;;;;;;;5.73;96.00;99955.63;3574388;40;20056;-56
2021/05/07 08:42:11;;;;;;;4.70;3.53;;;;;;;5.55;97.80;99965.19;3575061;40;20316;-54
2021/05/07 08:44:39;;;;;;;4.72;4.18;;;;;;;5.25;98.78;99957.34;3574903;40;20053;-55
2021/05/07 08:47:06;;;;;;;5.57;3.30;;;;;;;5.94;95.81;99969.88;3564128;40;20053;-54
2021/05/07 08:49:33;;;;;;;7.30;3.22;;;;;;;5.86;95.94;99965.38;3565493;40;20065;-52
2021/05/07 08:52:00;;;;;;;8.68;3.95;;;;;;;6.76;94.54;99969.91;3567872;40;20410;-51
2021/05/07 08:54:28;;;;;;;4.13;3.28;;;;;;;7.06;92.26;99981.75;3574405;40;20462;-54
2021/05/07 08:56:56;;;;;;;4.25;2.80;;;;;;;6.67;93.38;99978.94;3574336;40;20037;-51
2021/05/07 08:59:23;;;;;;;6.15;3.65;;;;;;;6.50;92.90;99989.47;3574367;40;20053;-52
2021/05/07 09:01:51;;;;;;;5.63;3.67;;;;;;;6.55;93.25;99992.13;3567160;40;20113;-52
2021/05/07 09:04:20;;;;;;;5.57;3.28;;;;;;;6.60;90.19;99998.22;3574355;40;20055;-52
2021/05/07 09:06:52;;;;;;;4.15;3.13;;;;;;;6.53;93.89;100009.03;3574463;40;20061;-52
2021/05/07 09:09:31;;;;;;;5.28;2.80;;;;;;;6.15;93.83;100013.78;3574652;40;20053;-54
2021/05/07 09:12:01;;;;;;;5.93;3.45;;;;;;;6.31;94.89;100007.50;3574713;40;20049;-54
2021/05/07 09:14:28;;;;;;;6.78;3.38;;;;;;;6.43;91.26;100009.59;3574651;40;20063;-57
2021/05/07 09:17:05;;;;;;;3.78;2.72;;;;;;;6.31;92.85;100023.63;3574097;40;20045;-53
2021/05/07 09:19:37;;;;;;;5.55;2.97;;;;;;;6.63;94.49;100024.63;3572798;40;20061;-58
2021/05/07 09:22:04;;;;;;;4.80;2.97;;;;;;;6.76;93.27;100019.91;3574520;40;20057;-53
2021/05/07 09:24:33;;;;;;;5.85;2.78;;;;;;;6.81;94.09;100033.66;3574267;40;20057;-53
2021/05/07 09:27:07;;;;;;;4.20;2.92;;;;;;;6.45;93.98;100034.22;3574419;40;20504;-56
2021/05/07 09:29:35;;;;;;;4.32;3.03;;;;;;;6.76;93.83;100043.69;3574571;40;20053;-57
2021/05/07 09:32:03;;;;;;;4.45;3.00;;;;;;;6.63;93.12;100041.56;3574462;40;20114;-53
2021/05/07 09:34:36;;;;;;;5.15;3.15;;;;;;;6.52;93.84;100055.66;3573793;40;20093;-52
2021/05/07 09:37:13;;;;;;;4.95;3.00;;;;;;;6.22;95.19;100052.97;3572897;40;20426;-52
2021/05/07 09:39:41;;;;;;;5.85;2.90;;;;;;;6.38;94.51;100063.69;3572626;40;20045;-53
2021/05/07 09:42:07;;;;;;;6.18;2.55;;;;;;;5.73;95.91;100069.94;3574238;40;20152;-53
2021/05/07 09:44:35;;;;;;;2.97;2.15;;;;;;;6.15;94.29;100082.41;3573476;40;20080;-57
2021/05/07 09:47:13;;;;;;;2.30;1.52;;;;;;;5.74;93.71;100086.91;3574672;40;20411;-55
2021/05/07 09:49:40;;;;;;;1.73;1.30;;;;;;;5.92;94.35;100090.94;3573493;40;20048;-51
2021/05/07 09:52:08;;;;;;;1.98;1.77;;;;;;;5.93;93.14;100101.16;3574492;40;20077;-54
2021/05/07 09:54:34;;;;;;;1.73;1.30;;;;;;;5.68;93.64;100106.13;3574198;40;20053;-53
2021/05/07 09:57:04;;;;;;;1.30;1.20;;;;;;;5.61;92.33;100116.06;3574187;40;20277;-55
2021/05/07 09:59:33;;;;;;;1.85;1.30;;;;;;;5.21;94.10;100128.97;3574262;40;20327;-53
2021/05/07 10:02:02;;;;;;;1.20;0.95;;;;;;;5.28;91.58;100135.16;3560248;40;20116;-56
2021/05/07 10:04:29;;;;;;;1.02;0.80;;;;;;;4.88;92.72;100143.75;3574470;40;20057;-49
2021/05/07 10:06:57;;;;;;;1.85;1.10;;;;;;;4.84;92.70;100145.28;3573682;40;20049;-51
2021/05/07 10:09:25;;;;;;;1.50;1.23;;;;;;;4.67;91.70;100153.03;3574630;40;20080;-49
2021/05/07 10:11:55;;;;;;;1.42;1.33;;;;;;;4.27;92.05;100157.34;3574074;40;20335;-48
2021/05/07 10:14:23;;;;;;;1.40;1.30;;;;;;;4.40;91.02;100160.41;3573894;40;20120;-49
2021/05/07 10:16:50;;;;;;;1.92;1.70;;;;;;;4.37;89.76;100166.19;3573638;40;20056;-48
2021/05/07 10:19:17;;;;;;;1.73;1.50;;;;;;;4.17;90.66;100167.88;3573240;40;20060;-50
2021/05/07 10:21:45;;;;;;;1.45;1.35;;;;;;;4.28;90.11;100176.78;3573927;40;20056;-50
2021/05/07 10:24:19;;;;;;;1.42;1.33;;;;;;;3.86;90.92;100174.94;3572202;40;20045;-52
2021/05/07 10:26:54;;;;;;;1.50;1.40;;;;;;;3.79;91.31;100184.81;3573690;40;20093;-49
2021/05/07 10:29:27;;;;;;;2.25;1.70;;;;;;;4.42;90.70;100184.97;3573796;40;20073;-52
2021/05/07 10:31:58;;;;;;;2.25;2.10;;;;;;;3.82;93.95;100184.06;3573595;40;20068;-55
2021/05/07 10:34:27;;;;;;;3.05;2.75;;;;;;;4.03;95.83;100184.16;3564457;40;20057;-54
2021/05/07 10:37:10;;;;;;;4.80;4.40;;;;;;;4.82;91.49;100192.56;3573025;40;20116;-57
2021/05/07 10:39:54;;;;;;;3.97;3.67;;;;;;;4.72;92.26;100198.09;3572510;40;20064;-57
2021/05/07 10:42:22;;;;;;;2.72;2.53;;;;;;;4.98;90.04;100194.03;3573641;40;20096;-56
2021/05/07 10:44:52;;;;;;;7.55;6.90;;;;;;;4.78;92.70;100200.84;3573061;40;20386;-54
2021/05/07 10:47:19;;;;;;;2.30;2.17;;;;;;;4.97;90.62;100197.38;3573381;40;20426;-51
2021/05/07 10:49:47;;;;;;;2.00;1.90;;;;;;;5.04;90.22;100189.22;3573378;40;20060;-50
2021/05/07 10:52:16;;;;;;;2.53;2.25;;;;;;;4.79;92.65;100194.97;3572139;40;20053;-49
2021/05/07 10:54:48;;;;;;;2.65;1.83;;;;;;;5.40;93.51;100204.13;3574736;40;20080;-52
2021/05/07 10:57:22;;;;;;;1.55;1.45;;;;;;;5.47;91.68;100195.97;3573856;40;20072;-55
2021/05/07 11:00:02;;;;;;;1.70;1.60;;;;;;;5.99;91.90;100199.59;3575020;40;20201;-55
2021/05/07 11:02:41;;;;;;;1.35;1.25;;;;;;;6.85;85.92;100203.41;3574932;40;20081;-52
2021/05/07 11:05:09;;;;;;;2.30;1.65;;;;;;;7.48;85.30;100211.34;3573355;40;20406;-57
2021/05/07 11:07:36;;;;;;;2.20;1.52;;;;;;;7.71;83.35;100212.00;3573771;40;20056;-51
2021/05/07 11:10:05;;;;;;;1.50;1.40;;;;;;;7.83;83.68;100217.47;3574914;40;20123;-50
2021/05/07 11:12:32;;;;;;;1.70;1.40;;;;;;;9.08;81.84;100219.13;3575168;40;20066;-52
2021/05/07 11:14:59;;;;;;;1.80;1.48;;;;;;;8.38;79.68;100223.31;3573642;40;20045;-51
2021/05/07 11:17:25;;;;;;;1.35;1.30;;;;;;;9.12;79.28;100223.47;3574947;40;20093;-53
2021/05/07 11:19:53;;;;;;;1.05;1.00;;;;;;;9.28;77.28;100232.34;3574919;40;20061;-52
2021/05/07 11:22:28;;;;;;;1.02;1.00;;;;;;;9.78;78.13;100236.03;3574675;40;20056;-53
2021/05/07 11:24:55;;;;;;;1.60;1.05;;;;;;;12.49;65.44;100256.75;3575383;40;20315;-53
2021/05/07 11:27:27;;;;;;;0.77;0.77;;;;;;;14.05;61.08;100245.94;3574486;40;20088;-55
2021/05/07 11:30:05;;;;;;;0.70;0.70;;;;;;;13.44;61.17;100243.88;3575492;40;20663;-53
2021/05/07 11:32:32;;;;;;;2.47;1.00;;;;;;;13.29;57.89;100243.78;3575336;40;20466;-56
2021/05/07 11:35:05;;;;;;;0.65;0.65;;;;;;;13.64;63.11;100256.91;3575118;40;20041;-59
2021/05/07 11:37:32;;;;;;;2.25;0.90;;;;;;;13.00;61.06;100247.81;3574619;40;20813;-51
2021/05/07 11:39:59;;;;;;;1.38;0.80;;;;;;;12.67;63.89;100255.22;3573992;40;20041;-52
2021/05/07 11:42:33;;;;;;;2.63;0.98;;;;;;;11.17;68.94;100256.63;3575438;40;20061;-47
2021/05/07 11:45:02;;;;;;;1.08;0.95;;;;;;;10.82;69.42;100260.31;3574002;40;20077;-58